sensor_id;sensor_type;location;lat;lon;timestamp;temperature;humidity
78366;HTU21D;67641;59.864;30.464;2023-04-03T00:01:24;11.44;53.91
78366;HTU21D;67641;59.864;30.464;2023-04-03T00:03:51;11.45;54.30
78366;HTU21D;67641;59.864;30.464;2023-04-03T00:06:18;11.48;53.93
78366;HTU21D;67641;59.864;30.464;2023-04-03T00:08:44;11.49;53.92
78366;HTU21D;67641;59.864;30.464;2023-04-03T00:11:11;11.38;53.96
78366;HTU21D;67641;59.864;30.464;2023-04-03T00:13:38;11.33;54.63
78366;HTU21D;67641;59.864;30.464;2023-04-03T00:16:06;11.36;54.76
78366;HTU21D;67641;59.864;30.464;2023-04-03T00:18:33;11.38;54.65
78366;HTU21D;67641;59.864;30.464;2023-04-03T00:21:00;11.32;54.79
78366;HTU21D;67641;59.864;30.464;2023-04-03T00:23:27;11.29;55.13
78366;HTU21D;67641;59.864;30.464;2023-04-03T00:25:54;11.25;55.03
78366;HTU21D;67641;59.864;30.464;2023-04-03T00:28:21;11.23;55.07
78366;HTU21D;67641;59.864;30.464;2023-04-03T00:30:51;11.26;55.56
78366;HTU21D;67641;59.864;30.464;2023-04-03T00:33:19;11.28;55.25
78366;HTU21D;67641;59.864;30.464;2023-04-03T00:35:50;11.30;55.20
78366;HTU21D;67641;59.864;30.464;2023-04-03T00:38:17;11.23;55.69
78366;HTU21D;67641;59.864;30.464;2023-04-03T00:40:46;11.22;55.61
78366;HTU21D;67641;59.864;30.464;2023-04-03T00:43:24;11.20;55.78
78366;HTU21D;67641;59.864;30.464;2023-04-03T00:45:57;11.16;56.23
78366;HTU21D;67641;59.864;30.464;2023-04-03T00:48:46;11.24;55.23
78366;HTU21D;67641;59.864;30.464;2023-04-03T00:51:22;11.26;55.37
78366;HTU21D;67641;59.864;30.464;2023-04-03T00:53:56;11.25;55.54
78366;HTU21D;67641;59.864;30.464;2023-04-03T00:56:26;11.26;55.48
78366;HTU21D;67641;59.864;30.464;2023-04-03T00:59:01;11.28;55.55
78366;HTU21D;67641;59.864;30.464;2023-04-03T01:01:29;11.25;55.64
78366;HTU21D;67641;59.864;30.464;2023-04-03T01:03:58;11.22;55.32
78366;HTU21D;67641;59.864;30.464;2023-04-03T01:06:27;11.24;55.34
78366;HTU21D;67641;59.864;30.464;2023-04-03T01:08:54;11.14;55.33
78366;HTU21D;67641;59.864;30.464;2023-04-03T01:11:21;11.15;55.67
78366;HTU21D;67641;59.864;30.464;2023-04-03T01:13:47;11.19;55.43
78366;HTU21D;67641;59.864;30.464;2023-04-03T01:16:15;11.18;55.56
78366;HTU21D;67641;59.864;30.464;2023-04-03T01:18:42;11.24;55.28
78366;HTU21D;67641;59.864;30.464;2023-04-03T01:26:48;11.24;54.90
78366;HTU21D;67641;59.864;30.464;2023-04-03T01:29:14;11.22;55.07
78366;HTU21D;67641;59.864;30.464;2023-04-03T01:31:46;11.24;55.12
78366;HTU21D;67641;59.864;30.464;2023-04-03T01:34:12;11.27;54.71
78366;HTU21D;67641;59.864;30.464;2023-04-03T01:36:39;11.48;54.01
78366;HTU21D;67641;59.864;30.464;2023-04-03T01:39:05;11.45;54.32
78366;HTU21D;67641;59.864;30.464;2023-04-03T01:41:32;11.43;54.14
78366;HTU21D;67641;59.864;30.464;2023-04-03T01:43:58;11.38;54.71
78366;HTU21D;67641;59.864;30.464;2023-04-03T01:46:25;11.37;54.78
78366;HTU21D;67641;59.864;30.464;2023-04-03T01:48:51;11.37;54.20
78366;HTU21D;67641;59.864;30.464;2023-04-03T01:51:17;11.32;54.48
78366;HTU21D;67641;59.864;30.464;2023-04-03T01:53:44;11.34;54.29
78366;HTU21D;67641;59.864;30.464;2023-04-03T01:56:11;11.36;54.03
78366;HTU21D;67641;59.864;30.464;2023-04-03T01:58:37;11.39;53.72
78366;HTU21D;67641;59.864;30.464;2023-04-03T02:01:04;11.36;54.03
78366;HTU21D;67641;59.864;30.464;2023-04-03T02:03:31;11.37;53.65
78366;HTU21D;67641;59.864;30.464;2023-04-03T02:05:59;11.38;53.26
78366;HTU21D;67641;59.864;30.464;2023-04-03T02:08:25;11.39;52.50
78366;HTU21D;67641;59.864;30.464;2023-04-03T02:10:52;11.24;53.64
78366;HTU21D;67641;59.864;30.464;2023-04-03T02:13:19;11.19;53.83
78366;HTU21D;67641;59.864;30.464;2023-04-03T02:15:45;11.17;54.23
78366;HTU21D;67641;59.864;30.464;2023-04-03T02:18:12;11.07;54.72
78366;HTU21D;67641;59.864;30.464;2023-04-03T02:20:38;11.01;55.10
78366;HTU21D;67641;59.864;30.464;2023-04-03T02:23:05;11.05;54.75
78366;HTU21D;67641;59.864;30.464;2023-04-03T02:25:32;11.11;54.44
78366;HTU21D;67641;59.864;30.464;2023-04-03T02:27:59;11.08;54.50
78366;HTU21D;67641;59.864;30.464;2023-04-03T02:30:26;11.00;54.97
78366;HTU21D;67641;59.864;30.464;2023-04-03T02:32:52;10.98;55.28
78366;HTU21D;67641;59.864;30.464;2023-04-03T02:35:19;10.97;55.42
78366;HTU21D;67641;59.864;30.464;2023-04-03T02:37:46;10.99;55.41
78366;HTU21D;67641;59.864;30.464;2023-04-03T02:40:12;11.03;55.09
78366;HTU21D;67641;59.864;30.464;2023-04-03T02:42:39;11.07;55.10
78366;HTU21D;67641;59.864;30.464;2023-04-03T02:45:06;11.04;55.18
78366;HTU21D;67641;59.864;30.464;2023-04-03T02:47:33;11.07;55.07
78366;HTU21D;67641;59.864;30.464;2023-04-03T02:49:59;11.02;55.10
78366;HTU21D;67641;59.864;30.464;2023-04-03T02:52:26;11.01;55.25
78366;HTU21D;67641;59.864;30.464;2023-04-03T02:54:52;11.01;55.16
78366;HTU21D;67641;59.864;30.464;2023-04-03T02:57:19;10.99;54.93
78366;HTU21D;67641;59.864;30.464;2023-04-03T02:59:46;10.92;55.13
78366;HTU21D;67641;59.864;30.464;2023-04-03T03:02:12;10.88;55.68
78366;HTU21D;67641;59.864;30.464;2023-04-03T03:04:39;10.94;55.36
78366;HTU21D;67641;59.864;30.464;2023-04-03T03:07:06;10.96;54.80
78366;HTU21D;67641;59.864;30.464;2023-04-03T03:09:32;10.95;54.87
78366;HTU21D;67641;59.864;30.464;2023-04-03T03:11:59;10.94;55.07
78366;HTU21D;67641;59.864;30.464;2023-04-03T03:14:26;10.92;54.84
78366;HTU21D;67641;59.864;30.464;2023-04-03T03:16:52;10.79;55.65
78366;HTU21D;67641;59.864;30.464;2023-04-03T03:19:19;10.78;56.00
78366;HTU21D;67641;59.864;30.464;2023-04-03T03:21:46;10.80;56.06
78366;HTU21D;67641;59.864;30.464;2023-04-03T03:24:12;10.82;56.39
78366;HTU21D;67641;59.864;30.464;2023-04-03T03:26:39;10.86;56.14
78366;HTU21D;67641;59.864;30.464;2023-04-03T03:29:06;10.86;56.38
78366;HTU21D;67641;59.864;30.464;2023-04-03T03:31:32;10.89;56.26
78366;HTU21D;67641;59.864;30.464;2023-04-03T03:33:59;10.92;55.88
78366;HTU21D;67641;59.864;30.464;2023-04-03T03:36:26;10.96;55.58
78366;HTU21D;67641;59.864;30.464;2023-04-03T03:38:52;10.96;55.62
78366;HTU21D;67641;59.864;30.464;2023-04-03T03:41:19;10.99;55.42
78366;HTU21D;67641;59.864;30.464;2023-04-03T03:43:46;11.02;55.36
78366;HTU21D;67641;59.864;30.464;2023-04-03T03:46:12;11.05;54.81
78366;HTU21D;67641;59.864;30.464;2023-04-03T03:48:39;11.05;55.06
78366;HTU21D;67641;59.864;30.464;2023-04-03T03:51:06;10.97;55.59
78366;HTU21D;67641;59.864;30.464;2023-04-03T03:53:32;10.88;55.87
78366;HTU21D;67641;59.864;30.464;2023-04-03T03:55:59;10.92;56.24
78366;HTU21D;67641;59.864;30.464;2023-04-03T03:58:25;10.96;56.44
78366;HTU21D;67641;59.864;30.464;2023-04-03T04:00:52;10.97;56.68
78366;HTU21D;67641;59.864;30.464;2023-04-03T04:03:18;11.00;56.30
78366;HTU21D;67641;59.864;30.464;2023-04-03T04:05:45;11.03;56.72
78366;HTU21D;67641;59.864;30.464;2023-04-03T04:08:11;11.03;56.81
78366;HTU21D;67641;59.864;30.464;2023-04-03T04:10:38;11.11;56.91
78366;HTU21D;67641;59.864;30.464;2023-04-03T04:13:05;11.16;56.77
78366;HTU21D;67641;59.864;30.464;2023-04-03T04:15:31;11.20;56.91
78366;HTU21D;67641;59.864;30.464;2023-04-03T04:17:58;11.22;57.22
78366;HTU21D;67641;59.864;30.464;2023-04-03T04:20:24;11.30;57.11
78366;HTU21D;67641;59.864;30.464;2023-04-03T04:22:50;11.33;56.95
78366;HTU21D;67641;59.864;30.464;2023-04-03T04:25:17;11.42;56.42
78366;HTU21D;67641;59.864;30.464;2023-04-03T04:27:43;11.52;56.02
78366;HTU21D;67641;59.864;30.464;2023-04-03T04:30:10;11.59;55.90
78366;HTU21D;67641;59.864;30.464;2023-04-03T04:32:37;11.68;55.76
78366;HTU21D;67641;59.864;30.464;2023-04-03T04:35:04;11.78;55.49
78366;HTU21D;67641;59.864;30.464;2023-04-03T04:37:31;11.86;55.35
78366;HTU21D;67641;59.864;30.464;2023-04-03T04:39:57;11.94;55.27
78366;HTU21D;67641;59.864;30.464;2023-04-03T04:42:24;11.97;56.05
78366;HTU21D;67641;59.864;30.464;2023-04-03T04:44:51;12.03;56.52
78366;HTU21D;67641;59.864;30.464;2023-04-03T04:47:17;12.07;56.81
78366;HTU21D;67641;59.864;30.464;2023-04-03T04:49:44;12.16;56.46
78366;HTU21D;67641;59.864;30.464;2023-04-03T04:52:11;12.23;56.25
78366;HTU21D;67641;59.864;30.464;2023-04-03T04:54:37;12.31;56.53
78366;HTU21D;67641;59.864;30.464;2023-04-03T04:57:03;12.36;56.75
78366;HTU21D;67641;59.864;30.464;2023-04-03T04:59:30;12.44;57.22
78366;HTU21D;67641;59.864;30.464;2023-04-03T05:01:56;12.53;57.69
78366;HTU21D;67641;59.864;30.464;2023-04-03T05:04:22;12.60;57.91
78366;HTU21D;67641;59.864;30.464;2023-04-03T05:06:48;12.67;58.00
78366;HTU21D;67641;59.864;30.464;2023-04-03T05:09:15;12.72;58.50
78366;HTU21D;67641;59.864;30.464;2023-04-03T05:11:41;12.77;58.46
78366;HTU21D;67641;59.864;30.464;2023-04-03T05:14:08;12.84;58.40
78366;HTU21D;67641;59.864;30.464;2023-04-03T05:16:35;12.89;58.54
78366;HTU21D;67641;59.864;30.464;2023-04-03T05:19:01;12.95;58.58
78366;HTU21D;67641;59.864;30.464;2023-04-03T05:21:27;13.00;58.61
78366;HTU21D;67641;59.864;30.464;2023-04-03T05:24:01;13.05;59.04
78366;HTU21D;67641;59.864;30.464;2023-04-03T05:26:30;13.09;58.88
78366;HTU21D;67641;59.864;30.464;2023-04-03T05:28:56;13.16;58.76
78366;HTU21D;67641;59.864;30.464;2023-04-03T05:31:22;13.21;59.27
78366;HTU21D;67641;59.864;30.464;2023-04-03T05:33:49;13.29;59.25
78366;HTU21D;67641;59.864;30.464;2023-04-03T05:36:15;13.34;59.29
78366;HTU21D;67641;59.864;30.464;2023-04-03T05:38:42;13.44;58.94
78366;HTU21D;67641;59.864;30.464;2023-04-03T05:41:08;13.53;59.21
78366;HTU21D;67641;59.864;30.464;2023-04-03T05:43:34;13.62;55.97
78366;HTU21D;67641;59.864;30.464;2023-04-03T05:46:03;13.69;52.75
78366;HTU21D;67641;59.864;30.464;2023-04-03T05:48:30;13.71;53.39
78366;HTU21D;67641;59.864;30.464;2023-04-03T05:50:56;13.69;54.10
78366;HTU21D;67641;59.864;30.464;2023-04-03T05:53:29;13.69;53.95
78366;HTU21D;67641;59.864;30.464;2023-04-03T05:55:57;13.79;53.72
78366;HTU21D;67641;59.864;30.464;2023-04-03T05:58:24;13.89;52.61
78366;HTU21D;67641;59.864;30.464;2023-04-03T06:00:50;13.91;50.53
78366;HTU21D;67641;59.864;30.464;2023-04-03T06:03:17;14.00;50.91
78366;HTU21D;67641;59.864;30.464;2023-04-03T06:05:43;14.09;50.58
78366;HTU21D;67641;59.864;30.464;2023-04-03T06:08:10;14.11;50.11
78366;HTU21D;67641;59.864;30.464;2023-04-03T06:10:36;14.21;49.53
78366;HTU21D;67641;59.864;30.464;2023-04-03T06:13:04;14.29;49.25
78366;HTU21D;67641;59.864;30.464;2023-04-03T06:15:30;14.35;49.08
78366;HTU21D;67641;59.864;30.464;2023-04-03T06:17:57;14.41;47.86
78366;HTU21D;67641;59.864;30.464;2023-04-03T06:20:23;14.52;47.54
78366;HTU21D;67641;59.864;30.464;2023-04-03T06:22:50;14.60;48.23
78366;HTU21D;67641;59.864;30.464;2023-04-03T06:25:17;14.75;46.96
78366;HTU21D;67641;59.864;30.464;2023-04-03T06:27:45;14.85;47.30
78366;HTU21D;67641;59.864;30.464;2023-04-03T06:30:12;14.92;46.83
78366;HTU21D;67641;59.864;30.464;2023-04-03T06:32:38;14.94;46.25
78366;HTU21D;67641;59.864;30.464;2023-04-03T06:35:05;15.04;46.89
78366;HTU21D;67641;59.864;30.464;2023-04-03T06:37:32;15.12;45.74
78366;HTU21D;67641;59.864;30.464;2023-04-03T06:39:58;15.19;46.09
78366;HTU21D;67641;59.864;30.464;2023-04-03T06:42:26;15.27;45.22
78366;HTU21D;67641;59.864;30.464;2023-04-03T06:44:52;15.37;44.34
78366;HTU21D;67641;59.864;30.464;2023-04-03T06:47:19;15.42;44.44
78366;HTU21D;67641;59.864;30.464;2023-04-03T06:49:45;15.49;44.43
78366;HTU21D;67641;59.864;30.464;2023-04-03T06:52:12;15.58;44.02
78366;HTU21D;67641;59.864;30.464;2023-04-03T06:54:40;15.70;44.51
78366;HTU21D;67641;59.864;30.464;2023-04-03T06:57:07;15.77;44.10
78366;HTU21D;67641;59.864;30.464;2023-04-03T06:59:34;15.88;43.97
78366;HTU21D;67641;59.864;30.464;2023-04-03T07:02:00;15.91;43.42
78366;HTU21D;67641;59.864;30.464;2023-04-03T07:04:27;15.93;43.99
78366;HTU21D;67641;59.864;30.464;2023-04-03T07:06:53;16.03;43.96
78366;HTU21D;67641;59.864;30.464;2023-04-03T07:09:20;16.13;43.65
78366;HTU21D;67641;59.864;30.464;2023-04-03T07:11:47;16.19;43.61
78366;HTU21D;67641;59.864;30.464;2023-04-03T07:14:13;16.28;44.23
78366;HTU21D;67641;59.864;30.464;2023-04-03T07:16:40;16.39;43.61
78366;HTU21D;67641;59.864;30.464;2023-04-03T07:19:06;16.45;43.68
78366;HTU21D;67641;59.864;30.464;2023-04-03T07:21:34;16.52;43.64
78366;HTU21D;67641;59.864;30.464;2023-04-03T07:24:01;16.58;43.40
78366;HTU21D;67641;59.864;30.464;2023-04-03T07:26:27;16.69;42.99
78366;HTU21D;67641;59.864;30.464;2023-04-03T07:28:54;16.78;43.75
78366;HTU21D;67641;59.864;30.464;2023-04-03T07:52:16;16.43;51.33
78366;HTU21D;67641;59.864;30.464;2023-04-03T07:54:43;16.42;51.01
78366;HTU21D;67641;59.864;30.464;2023-04-03T07:57:10;16.42;50.95
78366;HTU21D;67641;59.864;30.464;2023-04-03T07:59:37;16.50;51.20
78366;HTU21D;67641;59.864;30.464;2023-04-03T08:02:05;16.50;52.61
78366;HTU21D;67641;59.864;30.464;2023-04-03T08:04:32;16.54;52.43
78366;HTU21D;67641;59.864;30.464;2023-04-03T08:06:59;16.60;53.01
78366;HTU21D;67641;59.864;30.464;2023-04-03T08:09:26;16.66;54.59
78366;HTU21D;67641;59.864;30.464;2023-04-03T08:11:53;16.66;54.44
78366;HTU21D;67641;59.864;30.464;2023-04-03T08:14:20;16.74;54.45
78366;HTU21D;67641;59.864;30.464;2023-04-03T08:16:47;16.75;54.55
78366;HTU21D;67641;59.864;30.464;2023-04-03T08:19:15;16.81;54.55
78366;HTU21D;67641;59.864;30.464;2023-04-03T08:21:44;16.88;54.84
78366;HTU21D;67641;59.864;30.464;2023-04-03T08:24:11;16.88;55.91
78366;HTU21D;67641;59.864;30.464;2023-04-03T08:26:38;16.88;55.87
78366;HTU21D;67641;59.864;30.464;2023-04-03T08:29:05;16.94;56.25
78366;HTU21D;67641;59.864;30.464;2023-04-03T08:31:32;17.03;54.97
78366;HTU21D;67641;59.864;30.464;2023-04-03T08:33:59;17.05;54.44
78366;HTU21D;67641;59.864;30.464;2023-04-03T08:36:28;17.11;53.78
78366;HTU21D;67641;59.864;30.464;2023-04-03T08:38:57;17.22;53.14
78366;HTU21D;67641;59.864;30.464;2023-04-03T08:41:31;17.19;53.11
78366;HTU21D;67641;59.864;30.464;2023-04-03T08:49:37;17.21;52.74
78366;HTU21D;67641;59.864;30.464;2023-04-03T08:52:13;17.28;52.75
78366;HTU21D;67641;59.864;30.464;2023-04-03T08:54:52;17.40;52.22
78366;HTU21D;67641;59.864;30.464;2023-04-03T08:57:32;17.39;51.97
78366;HTU21D;67641;59.864;30.464;2023-04-03T09:00:05;17.48;51.66
78366;HTU21D;67641;59.864;30.464;2023-04-03T09:02:45;17.52;51.06
78366;HTU21D;67641;59.864;30.464;2023-04-03T09:05:16;17.53;51.65
78366;HTU21D;67641;59.864;30.464;2023-04-03T09:08:00;17.65;51.07
78366;HTU21D;67641;59.864;30.464;2023-04-03T09:10:34;17.72;50.63
78366;HTU21D;67641;59.864;30.464;2023-04-03T09:13:33;17.78;50.56
78366;HTU21D;67641;59.864;30.464;2023-04-03T09:16:12;17.88;51.17
78366;HTU21D;67641;59.864;30.464;2023-04-03T09:18:45;17.95;50.19
78366;HTU21D;67641;59.864;30.464;2023-04-03T09:21:32;17.93;50.45
78366;HTU21D;67641;59.864;30.464;2023-04-03T09:24:01;17.93;50.51
78366;HTU21D;67641;59.864;30.464;2023-04-03T09:26:51;17.95;51.10
78366;HTU21D;67641;59.864;30.464;2023-04-03T09:29:23;18.04;51.43
78366;HTU21D;67641;59.864;30.464;2023-04-03T09:31:56;18.11;50.61
78366;HTU21D;67641;59.864;30.464;2023-04-03T09:34:25;18.19;51.03
78366;HTU21D;67641;59.864;30.464;2023-04-03T09:36:54;18.28;50.66
78366;HTU21D;67641;59.864;30.464;2023-04-03T09:39:26;18.27;50.72
78366;HTU21D;67641;59.864;30.464;2023-04-03T09:44:33;18.19;50.89
78366;HTU21D;67641;59.864;30.464;2023-04-03T09:47:18;18.24;50.84
78366;HTU21D;67641;59.864;30.464;2023-04-03T09:49:45;18.21;50.85
78366;HTU21D;67641;59.864;30.464;2023-04-03T09:52:22;18.30;51.24
78366;HTU21D;67641;59.864;30.464;2023-04-03T09:54:49;18.36;51.49
78366;HTU21D;67641;59.864;30.464;2023-04-03T09:57:16;18.32;51.65
78366;HTU21D;67641;59.864;30.464;2023-04-03T10:00:00;18.39;51.44
78366;HTU21D;67641;59.864;30.464;2023-04-03T10:02:39;18.41;51.07
78366;HTU21D;67641;59.864;30.464;2023-04-03T10:05:32;18.51;51.23
78366;HTU21D;67641;59.864;30.464;2023-04-03T10:08:28;18.48;51.17
78366;HTU21D;67641;59.864;30.464;2023-04-03T10:11:17;18.64;51.95
78366;HTU21D;67641;59.864;30.464;2023-04-03T10:16:36;18.65;52.78
78366;HTU21D;67641;59.864;30.464;2023-04-03T10:19:29;18.67;53.76
78366;HTU21D;67641;59.864;30.464;2023-04-03T10:22:01;18.62;54.59
78366;HTU21D;67641;59.864;30.464;2023-04-03T10:35:35;18.84;55.87
78366;HTU21D;67641;59.864;30.464;2023-04-03T10:43:25;18.95;56.36
78366;HTU21D;67641;59.864;30.464;2023-04-03T10:46:12;19.01;56.47
78366;HTU21D;67641;59.864;30.464;2023-04-03T10:52:23;19.11;56.93
78366;HTU21D;67641;59.864;30.464;2023-04-03T10:57:36;19.16;56.23
78366;HTU21D;67641;59.864;30.464;2023-04-03T11:00:19;19.22;56.19
78366;HTU21D;67641;59.864;30.464;2023-04-03T11:02:51;19.09;56.51
78366;HTU21D;67641;59.864;30.464;2023-04-03T11:08:28;19.21;57.02
78366;HTU21D;67641;59.864;30.464;2023-04-03T11:11:03;19.31;57.46
78366;HTU21D;67641;59.864;30.464;2023-04-03T11:13:38;19.42;56.26
78366;HTU21D;67641;59.864;30.464;2023-04-03T11:16:06;19.60;55.42
78366;HTU21D;67641;59.864;30.464;2023-04-03T11:18:45;19.57;55.52
78366;HTU21D;67641;59.864;30.464;2023-04-03T11:21:14;19.39;56.90
78366;HTU21D;67641;59.864;30.464;2023-04-03T11:23:44;19.35;56.91
78366;HTU21D;67641;59.864;30.464;2023-04-03T11:26:13;19.36;56.58
78366;HTU21D;67641;59.864;30.464;2023-04-03T11:28:40;19.25;57.77
78366;HTU21D;67641;59.864;30.464;2023-04-03T11:31:35;19.47;56.57
78366;HTU21D;67641;59.864;30.464;2023-04-03T11:36:44;19.83;55.75
78366;HTU21D;67641;59.864;30.464;2023-04-03T11:56:04;19.97;55.30
78366;HTU21D;67641;59.864;30.464;2023-04-03T11:58:34;19.95;55.57
78366;HTU21D;67641;59.864;30.464;2023-04-03T12:01:02;20.09;54.95
78366;HTU21D;67641;59.864;30.464;2023-04-03T12:03:30;20.29;54.48
78366;HTU21D;67641;59.864;30.464;2023-04-03T12:16:29;19.74;57.27
78366;HTU21D;67641;59.864;30.464;2023-04-03T12:19:02;19.61;57.64
78366;HTU21D;67641;59.864;30.464;2023-04-03T12:29:27;20.15;55.74
78366;HTU21D;67641;59.864;30.464;2023-04-03T12:40:52;19.96;56.08
78366;HTU21D;67641;59.864;30.464;2023-04-03T12:43:31;19.62;57.36
78366;HTU21D;67641;59.864;30.464;2023-04-03T12:46:17;19.65;58.58
78366;HTU21D;67641;59.864;30.464;2023-04-03T12:51:15;19.55;58.50
78366;HTU21D;67641;59.864;30.464;2023-04-03T12:53:44;19.42;58.54
78366;HTU21D;67641;59.864;30.464;2023-04-03T12:56:38;19.53;58.61
78366;HTU21D;67641;59.864;30.464;2023-04-03T12:59:25;19.56;58.73
78366;HTU21D;67641;59.864;30.464;2023-04-03T13:01:57;19.51;59.21
78366;HTU21D;67641;59.864;30.464;2023-04-03T13:04:25;19.38;59.83
78366;HTU21D;67641;59.864;30.464;2023-04-03T13:06:53;19.37;60.10
78366;HTU21D;67641;59.864;30.464;2023-04-03T13:09:26;19.42;59.53
78366;HTU21D;67641;59.864;30.464;2023-04-03T13:11:59;19.61;59.70
78366;HTU21D;67641;59.864;30.464;2023-04-03T13:14:28;19.44;58.99
78366;HTU21D;67641;59.864;30.464;2023-04-03T13:17:12;19.21;59.35
78366;HTU21D;67641;59.864;30.464;2023-04-03T13:19:40;19.27;59.90
78366;HTU21D;67641;59.864;30.464;2023-04-03T13:24:51;19.10;60.23
78366;HTU21D;67641;59.864;30.464;2023-04-03T13:27:18;19.03;61.05
78366;HTU21D;67641;59.864;30.464;2023-04-03T13:29:51;18.88;62.14
78366;HTU21D;67641;59.864;30.464;2023-04-03T13:32:21;18.74;63.55
78366;HTU21D;67641;59.864;30.464;2023-04-03T13:34:49;18.82;63.12
78366;HTU21D;67641;59.864;30.464;2023-04-03T13:42:36;18.91;61.86
78366;HTU21D;67641;59.864;30.464;2023-04-03T13:45:09;18.89;61.73
78366;HTU21D;67641;59.864;30.464;2023-04-03T13:47:41;18.87;61.85
78366;HTU21D;67641;59.864;30.464;2023-04-03T13:50:21;19.00;61.78
78366;HTU21D;67641;59.864;30.464;2023-04-03T13:53:11;19.14;60.87
78366;HTU21D;67641;59.864;30.464;2023-04-03T13:55:57;19.11;61.34
78366;HTU21D;67641;59.864;30.464;2023-04-03T13:58:26;19.07;60.94
78366;HTU21D;67641;59.864;30.464;2023-04-03T14:01:05;18.95;61.31
78366;HTU21D;67641;59.864;30.464;2023-04-03T14:03:51;18.96;61.46
78366;HTU21D;67641;59.864;30.464;2023-04-03T14:06:18;18.82;61.86
78366;HTU21D;67641;59.864;30.464;2023-04-03T14:08:46;18.72;62.54
78366;HTU21D;67641;59.864;30.464;2023-04-03T14:11:20;18.58;63.31
78366;HTU21D;67641;59.864;30.464;2023-04-03T14:13:49;18.55;63.18
78366;HTU21D;67641;59.864;30.464;2023-04-03T14:16:23;18.57;63.12
78366;HTU21D;67641;59.864;30.464;2023-04-03T14:18:52;18.55;63.57
78366;HTU21D;67641;59.864;30.464;2023-04-03T14:21:20;18.49;63.78
78366;HTU21D;67641;59.864;30.464;2023-04-03T14:23:48;18.66;63.11
78366;HTU21D;67641;59.864;30.464;2023-04-03T14:26:21;18.69;62.63
78366;HTU21D;67641;59.864;30.464;2023-04-03T14:28:52;18.72;62.47
78366;HTU21D;67641;59.864;30.464;2023-04-03T14:31:20;18.88;61.84
78366;HTU21D;67641;59.864;30.464;2023-04-03T14:33:47;19.08;61.03
78366;HTU21D;67641;59.864;30.464;2023-04-03T14:36:20;19.33;60.18
78366;HTU21D;67641;59.864;30.464;2023-04-03T14:38:48;19.39;60.40
78366;HTU21D;67641;59.864;30.464;2023-04-03T14:41:18;19.47;60.04
78366;HTU21D;67641;59.864;30.464;2023-04-03T14:43:45;19.40;60.64
78366;HTU21D;67641;59.864;30.464;2023-04-03T14:46:16;19.24;61.10
78366;HTU21D;67641;59.864;30.464;2023-04-03T14:48:44;19.21;61.32
78366;HTU21D;67641;59.864;30.464;2023-04-03T14:51:12;19.01;62.13
78366;HTU21D;67641;59.864;30.464;2023-04-03T14:53:41;18.82;62.40
78366;HTU21D;67641;59.864;30.464;2023-04-03T14:56:18;18.71;63.50
78366;HTU21D;67641;59.864;30.464;2023-04-03T14:58:45;18.56;63.73
78366;HTU21D;67641;59.864;30.464;2023-04-03T15:01:15;18.38;64.39
78366;HTU21D;67641;59.864;30.464;2023-04-03T15:03:42;18.30;64.47
78366;HTU21D;67641;59.864;30.464;2023-04-03T15:06:13;18.17;65.43
78366;HTU21D;67641;59.864;30.464;2023-04-03T15:08:41;17.93;66.40
78366;HTU21D;67641;59.864;30.464;2023-04-03T15:11:09;17.68;67.52
78366;HTU21D;67641;59.864;30.464;2023-04-03T15:13:37;17.49;68.38
78366;HTU21D;67641;59.864;30.464;2023-04-03T15:16:05;17.49;68.35
78366;HTU21D;67641;59.864;30.464;2023-04-03T15:18:38;17.48;68.44
78366;HTU21D;67641;59.864;30.464;2023-04-03T15:21:05;17.45;68.47
78366;HTU21D;67641;59.864;30.464;2023-04-03T15:23:32;17.35;69.11
78366;HTU21D;67641;59.864;30.464;2023-04-03T15:25:59;17.29;69.40
78366;HTU21D;67641;59.864;30.464;2023-04-03T15:30:58;17.21;69.56
78366;HTU21D;67641;59.864;30.464;2023-04-03T15:33:26;17.09;69.98
78366;HTU21D;67641;59.864;30.464;2023-04-03T15:35:52;17.01;70.53
78366;HTU21D;67641;59.864;30.464;2023-04-03T15:38:19;16.91;70.85
78366;HTU21D;67641;59.864;30.464;2023-04-03T15:40:46;16.79;71.18
78366;HTU21D;67641;59.864;30.464;2023-04-03T15:43:15;16.72;71.67
78366;HTU21D;67641;59.864;30.464;2023-04-03T15:45:43;16.64;71.83
78366;HTU21D;67641;59.864;30.464;2023-04-03T15:48:10;16.59;72.25
78366;HTU21D;67641;59.864;30.464;2023-04-03T15:50:38;16.49;72.32
78366;HTU21D;67641;59.864;30.464;2023-04-03T15:53:05;16.35;72.97
78366;HTU21D;67641;59.864;30.464;2023-04-03T15:55:34;16.24;73.57
78366;HTU21D;67641;59.864;30.464;2023-04-03T15:58:02;16.15;73.48
78366;HTU21D;67641;59.864;30.464;2023-04-03T16:00:29;16.10;73.66
78366;HTU21D;67641;59.864;30.464;2023-04-03T16:03:00;16.01;74.34
78366;HTU21D;67641;59.864;30.464;2023-04-03T16:05:30;15.95;74.51
78366;HTU21D;67641;59.864;30.464;2023-04-03T16:07:59;15.89;74.57
78366;HTU21D;67641;59.864;30.464;2023-04-03T16:10:27;15.86;74.68
78366;HTU21D;67641;59.864;30.464;2023-04-03T16:12:53;15.81;75.05
78366;HTU21D;67641;59.864;30.464;2023-04-03T16:15:20;15.71;75.27
78366;HTU21D;67641;59.864;30.464;2023-04-03T16:17:47;15.60;75.64
78366;HTU21D;67641;59.864;30.464;2023-04-03T16:20:14;15.53;76.21
78366;HTU21D;67641;59.864;30.464;2023-04-03T16:22:41;15.44;76.64
78366;HTU21D;67641;59.864;30.464;2023-04-03T16:25:08;15.39;76.71
78366;HTU21D;67641;59.864;30.464;2023-04-03T16:27:36;15.31;76.83
78366;HTU21D;67641;59.864;30.464;2023-04-03T16:30:03;15.27;76.88
78366;HTU21D;67641;59.864;30.464;2023-04-03T16:32:30;15.25;77.04
78366;HTU21D;67641;59.864;30.464;2023-04-03T16:34:58;15.19;77.35
78366;HTU21D;67641;59.864;30.464;2023-04-03T16:37:25;15.14;77.27
78366;HTU21D;67641;59.864;30.464;2023-04-03T16:39:52;14.92;78.08
78366;HTU21D;67641;59.864;30.464;2023-04-03T16:42:18;14.87;78.04
78366;HTU21D;67641;59.864;30.464;2023-04-03T16:44:45;14.84;78.13
78366;HTU21D;67641;59.864;30.464;2023-04-03T16:47:12;14.83;77.84
78366;HTU21D;67641;59.864;30.464;2023-04-03T16:49:40;14.83;78.08
78366;HTU21D;67641;59.864;30.464;2023-04-03T16:52:06;14.82;77.90
78366;HTU21D;67641;59.864;30.464;2023-04-03T16:54:33;14.72;78.44
78366;HTU21D;67641;59.864;30.464;2023-04-03T16:56:59;14.70;78.45
78366;HTU21D;67641;59.864;30.464;2023-04-03T16:59:26;14.67;78.15
78366;HTU21D;67641;59.864;30.464;2023-04-03T17:01:52;14.60;78.05
78366;HTU21D;67641;59.864;30.464;2023-04-03T17:04:19;14.59;78.04
78366;HTU21D;67641;59.864;30.464;2023-04-03T17:06:46;14.57;77.88
78366;HTU21D;67641;59.864;30.464;2023-04-03T17:09:13;14.60;77.66
78366;HTU21D;67641;59.864;30.464;2023-04-03T17:11:39;14.59;77.58
78366;HTU21D;67641;59.864;30.464;2023-04-03T17:14:06;14.53;77.53
78366;HTU21D;67641;59.864;30.464;2023-04-03T17:16:35;14.55;76.61
78366;HTU21D;67641;59.864;30.464;2023-04-03T17:19:03;14.53;76.73